sensor_id;sensor_type;location;lat;lon;timestamp;P1;durP1;ratioP1;P2;durP2;ratioP2
15818;SDS011;8010;53.986;12.106;2024-01-06T00:01:17;5.07;;;2.97;;
15818;SDS011;8010;53.986;12.106;2024-01-06T00:03:43;4.13;;;3.07;;
15818;SDS011;8010;53.986;12.106;2024-01-06T00:06:11;4.13;;;2.63;;
15818;SDS011;8010;53.986;12.106;2024-01-06T00:08:37;4.87;;;2.67;;
15818;SDS011;8010;53.986;12.106;2024-01-06T00:11:03;4.23;;;2.67;;
15818;SDS011;8010;53.986;12.106;2024-01-06T00:13:28;3.53;;;2.53;;
15818;SDS011;8010;53.986;12.106;2024-01-06T00:15:54;3.87;;;2.80;;
15818;SDS011;8010;53.986;12.106;2024-01-06T00:18:20;5.13;;;2.43;;
15818;SDS011;8010;53.986;12.106;2024-01-06T00:20:45;4.63;;;2.93;;
15818;SDS011;8010;53.986;12.106;2024-01-06T00:23:11;5.97;;;2.70;;
15818;SDS011;8010;53.986;12.106;2024-01-06T00:25:36;5.37;;;2.80;;
15818;SDS011;8010;53.986;12.106;2024-01-06T00:28:02;4.00;;;2.80;;
15818;SDS011;8010;53.986;12.106;2024-01-06T00:30:27;3.93;;;2.63;;
15818;SDS011;8010;53.986;12.106;2024-01-06T00:32:53;5.40;;;3.13;;
15818;SDS011;8010;53.986;12.106;2024-01-06T00:35:18;4.20;;;2.40;;
15818;SDS011;8010;53.986;12.106;2024-01-06T00:37:44;4.60;;;3.10;;
15818;SDS011;8010;53.986;12.106;2024-01-06T00:40:09;6.60;;;3.03;;
15818;SDS011;8010;53.986;12.106;2024-01-06T00:42:35;4.80;;;3.00;;
15818;SDS011;8010;53.986;12.106;2024-01-06T00:45:01;5.57;;;3.00;;
15818;SDS011;8010;53.986;12.106;2024-01-06T00:47:26;3.83;;;2.73;;
15818;SDS011;8010;53.986;12.106;2024-01-06T00:49:52;3.07;;;2.73;;
15818;SDS011;8010;53.986;12.106;2024-01-06T00:52:17;5.43;;;2.83;;
15818;SDS011;8010;53.986;12.106;2024-01-06T00:54:43;5.13;;;3.37;;
15818;SDS011;8010;53.986;12.106;2024-01-06T00:57:08;5.70;;;3.10;;
15818;SDS011;8010;53.986;12.106;2024-01-06T00:59:34;6.30;;;3.73;;
15818;SDS011;8010;53.986;12.106;2024-01-06T01:01:59;8.27;;;3.60;;
15818;SDS011;8010;53.986;12.106;2024-01-06T01:04:25;4.90;;;3.00;;
15818;SDS011;8010;53.986;12.106;2024-01-06T01:06:50;6.77;;;3.40;;
15818;SDS011;8010;53.986;12.106;2024-01-06T01:09:16;7.93;;;2.93;;
15818;SDS011;8010;53.986;12.106;2024-01-06T01:11:41;8.67;;;3.57;;
15818;SDS011;8010;53.986;12.106;2024-01-06T01:14:07;6.73;;;3.47;;
15818;SDS011;8010;53.986;12.106;2024-01-06T01:16:32;5.40;;;3.03;;
15818;SDS011;8010;53.986;12.106;2024-01-06T01:18:58;5.40;;;2.87;;
15818;SDS011;8010;53.986;12.106;2024-01-06T01:21:24;5.13;;;3.33;;
15818;SDS011;8010;53.986;12.106;2024-01-06T01:23:49;5.77;;;2.97;;
15818;SDS011;8010;53.986;12.106;2024-01-06T01:26:15;4.97;;;3.10;;
15818;SDS011;8010;53.986;12.106;2024-01-06T01:28:40;5.43;;;3.57;;
15818;SDS011;8010;53.986;12.106;2024-01-06T01:31:06;4.83;;;3.23;;
15818;SDS011;8010;53.986;12.106;2024-01-06T01:33:31;8.23;;;3.63;;
15818;SDS011;8010;53.986;12.106;2024-01-06T01:35:57;5.20;;;3.20;;
15818;SDS011;8010;53.986;12.106;2024-01-06T01:38:22;3.57;;;2.57;;
15818;SDS011;8010;53.986;12.106;2024-01-06T01:40:48;3.60;;;2.80;;
15818;SDS011;8010;53.986;12.106;2024-01-06T01:43:20;5.53;;;3.60;;
15818;SDS011;8010;53.986;12.106;2024-01-06T01:45:55;4.50;;;2.87;;
15818;SDS011;8010;53.986;12.106;2024-01-06T01:48:22;4.63;;;2.63;;
15818;SDS011;8010;53.986;12.106;2024-01-06T01:50:48;3.70;;;3.07;;
15818;SDS011;8010;53.986;12.106;2024-01-06T01:53:14;8.97;;;3.10;;
15818;SDS011;8010;53.986;12.106;2024-01-06T01:55:43;4.13;;;2.90;;
15818;SDS011;8010;53.986;12.106;2024-01-06T01:58:10;5.37;;;2.80;;
15818;SDS011;8010;53.986;12.106;2024-01-06T02:00:37;3.17;;;2.43;;
15818;SDS011;8010;53.986;12.106;2024-01-06T02:03:04;5.83;;;3.30;;
15818;SDS011;8010;53.986;12.106;2024-01-06T02:05:30;4.70;;;2.77;;
15818;SDS011;8010;53.986;12.106;2024-01-06T02:07:56;5.97;;;3.33;;
15818;SDS011;8010;53.986;12.106;2024-01-06T02:10:21;7.23;;;2.90;;
15818;SDS011;8010;53.986;12.106;2024-01-06T02:12:48;5.57;;;2.87;;
15818;SDS011;8010;53.986;12.106;2024-01-06T02:15:13;7.40;;;3.00;;
15818;SDS011;8010;53.986;12.106;2024-01-06T02:17:39;4.90;;;2.77;;
15818;SDS011;8010;53.986;12.106;2024-01-06T02:20:05;7.23;;;2.90;;
15818;SDS011;8010;53.986;12.106;2024-01-06T02:22:32;3.97;;;3.03;;
15818;SDS011;8010;53.986;12.106;2024-01-06T02:24:59;5.90;;;2.53;;
15818;SDS011;8010;53.986;12.106;2024-01-06T02:27:25;4.20;;;2.80;;
15818;SDS011;8010;53.986;12.106;2024-01-06T02:29:51;6.27;;;2.80;;
15818;SDS011;8010;53.986;12.106;2024-01-06T02:32:16;4.50;;;2.50;;
15818;SDS011;8010;53.986;12.106;2024-01-06T02:34:42;5.13;;;3.07;;
15818;SDS011;8010;53.986;12.106;2024-01-06T02:37:07;4.53;;;2.90;;
15818;SDS011;8010;53.986;12.106;2024-01-06T02:39:32;5.00;;;2.87;;
15818;SDS011;8010;53.986;12.106;2024-01-06T02:41:58;4.83;;;3.00;;
15818;SDS011;8010;53.986;12.106;2024-01-06T02:44:24;5.03;;;2.80;;
15818;SDS011;8010;53.986;12.106;2024-01-06T02:46:49;5.13;;;2.90;;
15818;SDS011;8010;53.986;12.106;2024-01-06T02:49:14;4.97;;;2.67;;
15818;SDS011;8010;53.986;12.106;2024-01-06T02:51:40;5.03;;;3.03;;
15818;SDS011;8010;53.986;12.106;2024-01-06T02:54:05;5.33;;;3.07;;
15818;SDS011;8010;53.986;12.106;2024-01-06T02:56:31;4.73;;;2.83;;
15818;SDS011;8010;53.986;12.106;2024-01-06T02:58:56;6.43;;;2.97;;
15818;SDS011;8010;53.986;12.106;2024-01-06T03:01:22;5.27;;;2.50;;
15818;SDS011;8010;53.986;12.106;2024-01-06T03:03:47;4.70;;;2.80;;
15818;SDS011;8010;53.986;12.106;2024-01-06T03:06:13;4.10;;;2.40;;
15818;SDS011;8010;53.986;12.106;2024-01-06T03:08:38;5.50;;;2.70;;
15818;SDS011;8010;53.986;12.106;2024-01-06T03:11:04;3.17;;;2.47;;
15818;SDS011;8010;53.986;12.106;2024-01-06T03:13:30;5.47;;;3.30;;
15818;SDS011;8010;53.986;12.106;2024-01-06T03:15:56;4.00;;;2.67;;
15818;SDS011;8010;53.986;12.106;2024-01-06T03:18:21;5.47;;;3.40;;
15818;SDS011;8010;53.986;12.106;2024-01-06T03:20:47;5.53;;;3.03;;
15818;SDS011;8010;53.986;12.106;2024-01-06T03:23:12;4.53;;;2.93;;
15818;SDS011;8010;53.986;12.106;2024-01-06T03:25:38;6.30;;;2.80;;
15818;SDS011;8010;53.986;12.106;2024-01-06T03:28:03;3.47;;;2.43;;
15818;SDS011;8010;53.986;12.106;2024-01-06T03:30:29;4.77;;;2.30;;
15818;SDS011;8010;53.986;12.106;2024-01-06T03:32:54;5.60;;;2.80;;
15818;SDS011;8010;53.986;12.106;2024-01-06T03:35:20;5.47;;;3.10;;
15818;SDS011;8010;53.986;12.106;2024-01-06T03:37:45;5.00;;;3.07;;
15818;SDS011;8010;53.986;12.106;2024-01-06T03:40:11;6.83;;;3.00;;
15818;SDS011;8010;53.986;12.106;2024-01-06T03:42:37;4.00;;;2.50;;
15818;SDS011;8010;53.986;12.106;2024-01-06T03:45:03;4.43;;;2.53;;
15818;SDS011;8010;53.986;12.106;2024-01-06T03:47:28;5.53;;;3.17;;
15818;SDS011;8010;53.986;12.106;2024-01-06T03:49:54;3.30;;;2.50;;
15818;SDS011;8010;53.986;12.106;2024-01-06T03:52:19;4.40;;;2.40;;
15818;SDS011;8010;53.986;12.106;2024-01-06T03:54:45;8.67;;;2.83;;
15818;SDS011;8010;53.986;12.106;2024-01-06T03:57:10;5.20;;;2.60;;
15818;SDS011;8010;53.986;12.106;2024-01-06T03:59:36;5.97;;;3.30;;
15818;SDS011;8010;53.986;12.106;2024-01-06T04:02:01;4.27;;;2.17;;
15818;SDS011;8010;53.986;12.106;2024-01-06T04:04:27;6.53;;;2.67;;
15818;SDS011;8010;53.986;12.106;2024-01-06T04:06:52;3.73;;;2.50;;
15818;SDS011;8010;53.986;12.106;2024-01-06T04:09:18;4.03;;;2.47;;
15818;SDS011;8010;53.986;12.106;2024-01-06T04:11:43;3.23;;;2.37;;
15818;SDS011;8010;53.986;12.106;2024-01-06T04:14:09;5.17;;;2.90;;
15818;SDS011;8010;53.986;12.106;2024-01-06T04:16:34;6.63;;;3.23;;
15818;SDS011;8010;53.986;12.106;2024-01-06T04:19:00;3.97;;;2.63;;
15818;SDS011;8010;53.986;12.106;2024-01-06T04:21:25;3.33;;;2.07;;
15818;SDS011;8010;53.986;12.106;2024-01-06T04:23:51;5.40;;;2.53;;
15818;SDS011;8010;53.986;12.106;2024-01-06T04:26:16;4.83;;;2.97;;
15818;SDS011;8010;53.986;12.106;2024-01-06T04:28:42;4.63;;;2.70;;
15818;SDS011;8010;53.986;12.106;2024-01-06T04:31:07;6.20;;;2.70;;
15818;SDS011;8010;53.986;12.106;2024-01-06T04:33:33;4.37;;;2.40;;
15818;SDS011;8010;53.986;12.106;2024-01-06T04:35:59;5.23;;;3.33;;
15818;SDS011;8010;53.986;12.106;2024-01-06T04:38:26;7.23;;;2.77;;
15818;SDS011;8010;53.986;12.106;2024-01-06T04:40:52;7.30;;;3.00;;
15818;SDS011;8010;53.986;12.106;2024-01-06T04:43:18;3.57;;;2.60;;
15818;SDS011;8010;53.986;12.106;2024-01-06T04:45:43;5.37;;;2.73;;
15818;SDS011;8010;53.986;12.106;2024-01-06T04:48:09;5.40;;;2.77;;
15818;SDS011;8010;53.986;12.106;2024-01-06T04:50:34;4.43;;;3.03;;
15818;SDS011;8010;53.986;12.106;2024-01-06T04:53:00;8.20;;;3.50;;
15818;SDS011;8010;53.986;12.106;2024-01-06T04:55:25;5.70;;;2.70;;
15818;SDS011;8010;53.986;12.106;2024-01-06T04:57:51;5.77;;;3.27;;
15818;SDS011;8010;53.986;12.106;2024-01-06T05:00:16;5.97;;;3.23;;
15818;SDS011;8010;53.986;12.106;2024-01-06T05:02:42;5.83;;;3.00;;
15818;SDS011;8010;53.986;12.106;2024-01-06T05:05:08;4.93;;;2.60;;
15818;SDS011;8010;53.986;12.106;2024-01-06T05:07:33;6.30;;;3.10;;
15818;SDS011;8010;53.986;12.106;2024-01-06T05:09:59;5.00;;;3.07;;
15818;SDS011;8010;53.986;12.106;2024-01-06T05:12:24;4.23;;;3.13;;
15818;SDS011;8010;53.986;12.106;2024-01-06T05:14:50;4.00;;;2.47;;
15818;SDS011;8010;53.986;12.106;2024-01-06T05:17:15;8.23;;;2.90;;
15818;SDS011;8010;53.986;12.106;2024-01-06T05:19:41;3.27;;;2.20;;
15818;SDS011;8010;53.986;12.106;2024-01-06T05:22:06;3.93;;;2.47;;
15818;SDS011;8010;53.986;12.106;2024-01-06T05:24:32;4.03;;;2.97;;
15818;SDS011;8010;53.986;12.106;2024-01-06T05:26:57;3.60;;;2.63;;
15818;SDS011;8010;53.986;12.106;2024-01-06T05:29:23;5.53;;;2.77;;
15818;SDS011;8010;53.986;12.106;2024-01-06T05:31:50;7.43;;;2.93;;
15818;SDS011;8010;53.986;12.106;2024-01-06T05:34:16;5.83;;;3.17;;
15818;SDS011;8010;53.986;12.106;2024-01-06T05:36:42;4.00;;;2.53;;
15818;SDS011;8010;53.986;12.106;2024-01-06T05:39:07;6.80;;;3.53;;
15818;SDS011;8010;53.986;12.106;2024-01-06T05:41:39;4.17;;;2.77;;
15818;SDS011;8010;53.986;12.106;2024-01-06T05:44:05;5.10;;;2.37;;
15818;SDS011;8010;53.986;12.106;2024-01-06T05:46:31;5.47;;;2.77;;
15818;SDS011;8010;53.986;12.106;2024-01-06T05:48:56;5.23;;;2.90;;
15818;SDS011;8010;53.986;12.106;2024-01-06T05:51:22;4.47;;;2.67;;
15818;SDS011;8010;53.986;12.106;2024-01-06T05:53:48;10.00;;;2.47;;
15818;SDS011;8010;53.986;12.106;2024-01-06T05:56:23;4.83;;;2.87;;
15818;SDS011;8010;53.986;12.106;2024-01-06T05:58:50;5.00;;;2.63;;
15818;SDS011;8010;53.986;12.106;2024-01-06T06:01:16;5.97;;;3.17;;
15818;SDS011;8010;53.986;12.106;2024-01-06T06:03:41;8.50;;;3.17;;
15818;SDS011;8010;53.986;12.106;2024-01-06T06:06:08;5.80;;;2.60;;
15818;SDS011;8010;53.986;12.106;2024-01-06T06:08:33;5.00;;;2.57;;
15818;SDS011;8010;53.986;12.106;2024-01-06T06:10:59;6.27;;;3.30;;
15818;SDS011;8010;53.986;12.106;2024-01-06T06:13:26;3.80;;;1.90;;
15818;SDS011;8010;53.986;12.106;2024-01-06T06:15:53;4.83;;;2.73;;
15818;SDS011;8010;53.986;12.106;2024-01-06T06:18:18;6.67;;;2.90;;
15818;SDS011;8010;53.986;12.106;2024-01-06T06:20:44;4.57;;;2.90;;
15818;SDS011;8010;53.986;12.106;2024-01-06T06:23:09;4.77;;;2.43;;
15818;SDS011;8010;53.986;12.106;2024-01-06T06:25:37;5.33;;;3.03;;
15818;SDS011;8010;53.986;12.106;2024-01-06T06:28:04;6.23;;;2.77;;
15818;SDS011;8010;53.986;12.106;2024-01-06T06:30:30;4.70;;;2.43;;
15818;SDS011;8010;53.986;12.106;2024-01-06T06:32:55;4.07;;;2.50;;
15818;SDS011;8010;53.986;12.106;2024-01-06T06:35:22;6.03;;;2.87;;
15818;SDS011;8010;53.986;12.106;2024-01-06T06:37:48;4.83;;;2.60;;
15818;SDS011;8010;53.986;12.106;2024-01-06T06:40:14;4.07;;;2.77;;
15818;SDS011;8010;53.986;12.106;2024-01-06T06:42:39;5.40;;;2.57;;
15818;SDS011;8010;53.986;12.106;2024-01-06T06:45:05;4.70;;;2.53;;
15818;SDS011;8010;53.986;12.106;2024-01-06T06:47:30;6.23;;;3.00;;
15818;SDS011;8010;53.986;12.106;2024-01-06T06:49:56;5.07;;;2.83;;
15818;SDS011;8010;53.986;12.106;2024-01-06T06:52:21;3.10;;;1.70;;
15818;SDS011;8010;53.986;12.106;2024-01-06T06:54:47;5.07;;;2.90;;
15818;SDS011;8010;53.986;12.106;2024-01-06T06:57:14;4.60;;;2.37;;
15818;SDS011;8010;53.986;12.106;2024-01-06T06:59:40;4.53;;;2.33;;
15818;SDS011;8010;53.986;12.106;2024-01-06T07:02:06;4.83;;;2.30;;
15818;SDS011;8010;53.986;12.106;2024-01-06T07:04:32;4.10;;;2.40;;
15818;SDS011;8010;53.986;12.106;2024-01-06T07:06:57;2.73;;;1.77;;
15818;SDS011;8010;53.986;12.106;2024-01-06T07:09:23;3.50;;;1.83;;
15818;SDS011;8010;53.986;12.106;2024-01-06T07:11:49;6.70;;;2.37;;
15818;SDS011;8010;53.986;12.106;2024-01-06T07:14:15;3.20;;;1.70;;
15818;SDS011;8010;53.986;12.106;2024-01-06T07:16:40;3.37;;;1.57;;
15818;SDS011;8010;53.986;12.106;2024-01-06T07:19:06;2.53;;;1.57;;
15818;SDS011;8010;53.986;12.106;2024-01-06T07:21:31;3.73;;;1.73;;
15818;SDS011;8010;53.986;12.106;2024-01-06T07:23:57;1.83;;;1.30;;
15818;SDS011;8010;53.986;12.106;2024-01-06T07:26:22;1.57;;;0.90;;
15818;SDS011;8010;53.986;12.106;2024-01-06T07:28:48;2.50;;;1.27;;
15818;SDS011;8010;53.986;12.106;2024-01-06T07:31:14;4.10;;;1.20;;
15818;SDS011;8010;53.986;12.106;2024-01-06T07:33:39;2.27;;;1.37;;
15818;SDS011;8010;53.986;12.106;2024-01-06T07:36:05;2.30;;;1.20;;
15818;SDS011;8010;53.986;12.106;2024-01-06T07:38:31;1.40;;;0.93;;
15818;SDS011;8010;53.986;12.106;2024-01-06T07:40:56;2.57;;;1.20;;
15818;SDS011;8010;53.986;12.106;2024-01-06T07:43:22;3.17;;;1.03;;
15818;SDS011;8010;53.986;12.106;2024-01-06T07:45:47;2.53;;;1.00;;
15818;SDS011;8010;53.986;12.106;2024-01-06T07:48:14;2.00;;;1.03;;
15818;SDS011;8010;53.986;12.106;2024-01-06T07:50:40;1.57;;;1.00;;
15818;SDS011;8010;53.986;12.106;2024-01-06T07:53:05;1.90;;;1.17;;
15818;SDS011;8010;53.986;12.106;2024-01-06T07:55:31;2.30;;;0.70;;
15818;SDS011;8010;53.986;12.106;2024-01-06T07:57:56;4.17;;;1.00;;
15818;SDS011;8010;53.986;12.106;2024-01-06T08:00:22;1.07;;;0.83;;
15818;SDS011;8010;53.986;12.106;2024-01-06T08:02:47;1.63;;;0.80;;
15818;SDS011;8010;53.986;12.106;2024-01-06T08:05:13;2.40;;;1.33;;
15818;SDS011;8010;53.986;12.106;2024-01-06T08:07:38;4.00;;;1.10;;
15818;SDS011;8010;53.986;12.106;2024-01-06T08:10:04;0.67;;;0.60;;
15818;SDS011;8010;53.986;12.106;2024-01-06T08:12:31;1.00;;;0.80;;
15818;SDS011;8010;53.986;12.106;2024-01-06T08:14:56;5.40;;;1.10;;
15818;SDS011;8010;53.986;12.106;2024-01-06T08:17:22;1.33;;;0.87;;
15818;SDS011;8010;53.986;12.106;2024-01-06T08:19:47;1.63;;;0.90;;
15818;SDS011;8010;53.986;12.106;2024-01-06T08:22:13;2.23;;;1.03;;
15818;SDS011;8010;53.986;12.106;2024-01-06T08:24:39;1.60;;;0.97;;
15818;SDS011;8010;53.986;12.106;2024-01-06T08:27:04;1.43;;;0.90;;
15818;SDS011;8010;53.986;12.106;2024-01-06T08:29:30;1.57;;;0.70;;
15818;SDS011;8010;53.986;12.106;2024-01-06T08:31:55;2.53;;;0.73;;
15818;SDS011;8010;53.986;12.106;2024-01-06T08:34:21;1.50;;;0.70;;
15818;SDS011;8010;53.986;12.106;2024-01-06T08:36:47;1.47;;;0.83;;
15818;SDS011;8010;53.986;12.106;2024-01-06T08:39:12;1.07;;;0.70;;
15818;SDS011;8010;53.986;12.106;2024-01-06T08:41:38;1.20;;;0.87;;
15818;SDS011;8010;53.986;12.106;2024-01-06T08:44:03;1.20;;;1.00;;
15818;SDS011;8010;53.986;12.106;2024-01-06T08:46:29;0.93;;;0.70;;
15818;SDS011;8010;53.986;12.106;2024-01-06T08:48:55;1.03;;;0.93;;
15818;SDS011;8010;53.986;12.106;2024-01-06T08:51:21;1.10;;;0.70;;
15818;SDS011;8010;53.986;12.106;2024-01-06T08:53:47;1.20;;;0.83;;
15818;SDS011;8010;53.986;12.106;2024-01-06T08:56:12;1.43;;;0.90;;
15818;SDS011;8010;53.986;12.106;2024-01-06T08:58:38;0.73;;;0.70;;
15818;SDS011;8010;53.986;12.106;2024-01-06T09:01:03;1.00;;;0.63;;
15818;SDS011;8010;53.986;12.106;2024-01-06T09:03:29;1.77;;;1.20;;
15818;SDS011;8010;53.986;12.106;2024-01-06T09:05:55;1.37;;;1.23;;
15818;SDS011;8010;53.986;12.106;2024-01-06T09:08:22;2.67;;;1.03;;
15818;SDS011;8010;53.986;12.106;2024-01-06T09:10:49;1.10;;;0.73;;
15818;SDS011;8010;53.986;12.106;2024-01-06T09:13:16;1.30;;;1.13;;
15818;SDS011;8010;53.986;12.106;2024-01-06T09:15:42;1.40;;;1.30;;
15818;SDS011;8010;53.986;12.106;2024-01-06T09:18:08;1.87;;;1.00;;
15818;SDS011;8010;53.986;12.106;2024-01-06T09:20:34;1.50;;;0.97;;
15818;SDS011;8010;53.986;12.106;2024-01-06T09:22:59;1.47;;;1.10;;
15818;SDS011;8010;53.986;12.106;2024-01-06T09:25:25;1.43;;;1.00;;
15818;SDS011;8010;53.986;12.106;2024-01-06T09:27:51;2.03;;;0.93;;
15818;SDS011;8010;53.986;12.106;2024-01-06T09:30:18;1.50;;;1.10;;
15818;SDS011;8010;53.986;12.106;2024-01-06T09:32:43;1.73;;;0.90;;
15818;SDS011;8010;53.986;12.106;2024-01-06T09:35:09;2.10;;;0.97;;
15818;SDS011;8010;53.986;12.106;2024-01-06T09:37:35;1.10;;;0.87;;
15818;SDS011;8010;53.986;12.106;2024-01-06T09:40:00;3.20;;;0.90;;
15818;SDS011;8010;53.986;12.106;2024-01-06T09:42:26;1.00;;;0.70;;
15818;SDS011;8010;53.986;12.106;2024-01-06T09:44:51;1.03;;;0.80;;
15818;SDS011;8010;53.986;12.106;2024-01-06T09:47:18;1.63;;;0.87;;
15818;SDS011;8010;53.986;12.106;2024-01-06T09:49:46;2.37;;;0.90;;
15818;SDS011;8010;53.986;12.106;2024-01-06T09:52:14;2.53;;;0.93;;
15818;SDS011;8010;53.986;12.106;2024-01-06T09:54:46;1.23;;;0.93;;
15818;SDS011;8010;53.986;12.106;2024-01-06T09:57:17;1.10;;;0.83;;
15818;SDS011;8010;53.986;12.106;2024-01-06T09:59:43;2.63;;;0.80;;
15818;SDS011;8010;53.986;12.106;2024-01-06T10:02:09;1.80;;;0.83;;
15818;SDS011;8010;53.986;12.106;2024-01-06T10:04:39;1.53;;;1.10;;
15818;SDS011;8010;53.986;12.106;2024-01-06T10:07:05;2.33;;;1.27;;
15818;SDS011;8010;53.986;12.106;2024-01-06T10:09:32;1.77;;;1.23;;
15818;SDS011;8010;53.986;12.106;2024-01-06T10:11:57;3.33;;;1.30;;
15818;SDS011;8010;53.986;12.106;2024-01-06T10:14:24;1.60;;;1.00;;
15818;SDS011;8010;53.986;12.106;2024-01-06T10:16:53;2.07;;;1.10;;
15818;SDS011;8010;53.986;12.106;2024-01-06T10:19:19;1.30;;;0.97;;
15818;SDS011;8010;53.986;12.106;2024-01-06T10:21:45;1.90;;;1.10;;
15818;SDS011;8010;53.986;12.106;2024-01-06T10:24:11;1.97;;;1.27;;
15818;SDS011;8010;53.986;12.106;2024-01-06T10:26:36;2.47;;;1.00;;
15818;SDS011;8010;53.986;12.106;2024-01-06T10:29:03;1.50;;;1.23;;
15818;SDS011;8010;53.986;12.106;2024-01-06T10:31:29;2.47;;;1.30;;
15818;SDS011;8010;53.986;12.106;2024-01-06T10:33:55;2.50;;;1.10;;
15818;SDS011;8010;53.986;12.106;2024-01-06T10:36:22;2.00;;;1.20;;
15818;SDS011;8010;53.986;12.106;2024-01-06T10:38:48;3.03;;;1.43;;
15818;SDS011;8010;53.986;12.106;2024-01-06T10:41:15;2.40;;;1.67;;
15818;SDS011;8010;53.986;12.106;2024-01-06T10:43:42;3.17;;;1.50;;
15818;SDS011;8010;53.986;12.106;2024-01-06T10:46:09;1.80;;;0.93;;
15818;SDS011;8010;53.986;12.106;2024-01-06T10:48:36;5.30;;;2.00;;
15818;SDS011;8010;53.986;12.106;2024-01-06T10:51:08;2.93;;;1.23;;
15818;SDS011;8010;53.986;12.106;2024-01-06T10:53:34;4.90;;;1.87;;
15818;SDS011;8010;53.986;12.106;2024-01-06T10:56:04;2.20;;;1.57;;
15818;SDS011;8010;53.986;12.106;2024-01-06T10:58:34;3.43;;;1.63;;
15818;SDS011;8010;53.986;12.106;2024-01-06T11:01:11;3.47;;;1.70;;
15818;SDS011;8010;53.986;12.106;2024-01-06T11:03:37;2.50;;;1.30;;
15818;SDS011;8010;53.986;12.106;2024-01-06T11:06:06;1.30;;;1.10;;
15818;SDS011;8010;53.986;12.106;2024-01-06T11:08:36;3.50;;;1.60;;
15818;SDS011;8010;53.986;12.106;2024-01-06T11:11:14;1.70;;;1.10;;
15818;SDS011;8010;53.986;12.106;2024-01-06T11:13:43;2.33;;;1.50;;
15818;SDS011;8010;53.986;12.106;2024-01-06T11:16:10;3.03;;;1.40;;
15818;SDS011;8010;53.986;12.106;2024-01-06T11:18:39;1.67;;;1.10;;
15818;SDS011;8010;53.986;12.106;2024-01-06T11:26:32;1.87;;;1.37;;
15818;SDS011;8010;53.986;12.106;2024-01-06T11:28:57;1.77;;;0.90;;
15818;SDS011;8010;53.986;12.106;2024-01-06T11:31:30;1.87;;;1.20;;
15818;SDS011;8010;53.986;12.106;2024-01-06T11:33:56;2.20;;;1.10;;
15818;SDS011;8010;53.986;12.106;2024-01-06T11:36:22;3.47;;;1.53;;
15818;SDS011;8010;53.986;12.106;2024-01-06T11:38:47;1.97;;;1.30;;
15818;SDS011;8010;53.986;12.106;2024-01-06T11:44:12;3.83;;;1.00;;
15818;SDS011;8010;53.986;12.106;2024-01-06T11:46:37;1.67;;;1.10;;
15818;SDS011;8010;53.986;12.106;2024-01-06T11:49:06;3.37;;;1.30;;
15818;SDS011;8010;53.986;12.106;2024-01-06T11:51:34;1.27;;;1.00;;
15818;SDS011;8010;53.986;12.106;2024-01-06T11:53:59;1.80;;;1.20;;
15818;SDS011;8010;53.986;12.106;2024-01-06T11:56:25;1.30;;;1.10;;
15818;SDS011;8010;53.986;12.106;2024-01-06T11:58:50;1.43;;;1.03;;
15818;SDS011;8010;53.986;12.106;2024-01-06T12:01:16;1.77;;;1.13;;
15818;SDS011;8010;53.986;12.106;2024-01-06T12:03:41;2.90;;;1.00;;
15818;SDS011;8010;53.986;12.106;2024-01-06T12:06:07;2.73;;;1.20;;
15818;SDS011;8010;53.986;12.106;2024-01-06T12:08:32;3.37;;;1.60;;
15818;SDS011;8010;53.986;12.106;2024-01-06T12:11:01;5.70;;;1.27;;
15818;SDS011;8010;53.986;12.106;2024-01-06T12:13:28;1.43;;;1.10;;
15818;SDS011;8010;53.986;12.106;2024-01-06T12:15:54;2.57;;;1.60;;
15818;SDS011;8010;53.986;12.106;2024-01-06T12:18:20;2.67;;;1.30;;
15818;SDS011;8010;53.986;12.106;2024-01-06T12:20:45;2.00;;;1.33;;
15818;SDS011;8010;53.986;12.106;2024-01-06T12:23:11;2.97;;;1.10;;
15818;SDS011;8010;53.986;12.106;2024-01-06T12:25:37;2.17;;;1.13;;
15818;SDS011;8010;53.986;12.106;2024-01-06T12:28:05;3.67;;;1.47;;
15818;SDS011;8010;53.986;12.106;2024-01-06T12:30:30;2.40;;;1.13;;
15818;SDS011;8010;53.986;12.106;2024-01-06T12:32:59;1.53;;;1.03;;
15818;SDS011;8010;53.986;12.106;2024-01-06T12:35:26;2.60;;;1.30;;
15818;SDS011;8010;53.986;12.106;2024-01-06T12:37:51;1.60;;;1.27;;
15818;SDS011;8010;53.986;12.106;2024-01-06T12:40:17;2.80;;;0.87;;
15818;SDS011;8010;53.986;12.106;2024-01-06T12:42:44;1.30;;;0.80;;
15818;SDS011;8010;53.986;12.106;2024-01-06T12:45:10;2.70;;;1.20;;
15818;SDS011;8010;53.986;12.106;2024-01-06T12:47:36;3.67;;;0.93;;
15818;SDS011;8010;53.986;12.106;2024-01-06T12:50:02;4.63;;;1.30;;
15818;SDS011;8010;53.986;12.106;2024-01-06T12:52:29;2.10;;;1.43;;
15818;SDS011;8010;53.986;12.106;2024-01-06T12:54:54;1.30;;;1.00;;
15818;SDS011;8010;53.986;12.106;2024-01-06T12:57:20;3.27;;;0.77;;
15818;SDS011;8010;53.986;12.106;2024-01-06T12:59:45;1.77;;;1.13;;
15818;SDS011;8010;53.986;12.106;2024-01-06T13:02:11;2.80;;;0.90;;
15818;SDS011;8010;53.986;12.106;2024-01-06T13:04:37;1.23;;;1.00;;
15818;SDS011;8010;53.986;12.106;2024-01-06T13:07:02;2.67;;;1.00;;
15818;SDS011;8010;53.986;12.106;2024-01-06T13:09:28;3.80;;;1.20;;
15818;SDS011;8010;53.986;12.106;2024-01-06T13:11:54;1.17;;;0.90;;
15818;SDS011;8010;53.986;12.106;2024-01-06T13:14:21;1.53;;;1.00;;
15818;SDS011;8010;53.986;12.106;2024-01-06T13:16:46;1.20;;;0.80;;
15818;SDS011;8010;53.986;12.106;2024-01-06T13:19:12;2.80;;;1.00;;
15818;SDS011;8010;53.986;12.106;2024-01-06T13:21:37;1.93;;;1.40;;
15818;SDS011;8010;53.986;12.106;2024-01-06T13:24:04;3.27;;;0.93;;
15818;SDS011;8010;53.986;12.106;2024-01-06T13:26:34;2.57;;;0.80;;
15818;SDS011;8010;53.986;12.106;2024-01-06T13:29:00;1.33;;;0.80;;
15818;SDS011;8010;53.986;12.106;2024-01-06T13:31:27;1.50;;;0.80;;
15818;SDS011;8010;53.986;12.106;2024-01-06T13:33:53;2.27;;;1.23;;
15818;SDS011;8010;53.986;12.106;2024-01-06T13:36:20;1.80;;;0.90;;
15818;SDS011;8010;53.986;12.106;2024-01-06T13:38:46;3.13;;;0.63;;
15818;SDS011;8010;53.986;12.106;2024-01-06T13:41:13;1.00;;;0.83;;
15818;SDS011;8010;53.986;12.106;2024-01-06T13:43:39;2.63;;;0.90;;
15818;SDS011;8010;53.986;12.106;2024-01-06T13:46:04;1.43;;;1.03;;
15818;SDS011;8010;53.986;12.106;2024-01-06T13:48:30;1.30;;;1.00;;
15818;SDS011;8010;53.986;12.106;2024-01-06T13:50:55;2.90;;;0.97;;
15818;SDS011;8010;53.986;12.106;2024-01-06T13:53:22;3.30;;;0.93;;
15818;SDS011;8010;53.986;12.106;2024-01-06T13:55:47;1.97;;;1.20;;
15818;SDS011;8010;53.986;12.106;2024-01-06T13:58:13;1.53;;;0.90;;
15818;SDS011;8010;53.986;12.106;2024-01-06T14:00:39;1.43;;;0.80;;
15818;SDS011;8010;53.986;12.106;2024-01-06T14:03:04;3.33;;;0.80;;
15818;SDS011;8010;53.986;12.106;2024-01-06T14:05:31;1.77;;;0.80;;
15818;SDS011;8010;53.986;12.106;2024-01-06T14:07:58;1.87;;;1.00;;
15818;SDS011;8010;53.986;12.106;2024-01-06T14:10:23;2.20;;;1.23;;
15818;SDS011;8010;53.986;12.106;2024-01-06T14:12:48;1.20;;;0.90;;
15818;SDS011;8010;53.986;12.106;2024-01-06T14:15:14;1.57;;;1.03;;
15818;SDS011;8010;53.986;12.106;2024-01-06T14:17:40;1.63;;;1.10;;
15818;SDS011;8010;53.986;12.106;2024-01-06T14:20:06;2.20;;;0.90;;
15818;SDS011;8010;53.986;12.106;2024-01-06T14:22:34;4.53;;;1.67;;
15818;SDS011;8010;53.986;12.106;2024-01-06T14:24:59;3.07;;;1.03;;
15818;SDS011;8010;53.986;12.106;2024-01-06T14:27:25;3.20;;;1.00;;
15818;SDS011;8010;53.986;12.106;2024-01-06T14:29:51;1.33;;;1.07;;
15818;SDS011;8010;53.986;12.106;2024-01-06T14:32:20;1.60;;;1.00;;
15818;SDS011;8010;53.986;12.106;2024-01-06T14:34:46;3.80;;;1.10;;
15818;SDS011;8010;53.986;12.106;2024-01-06T14:37:11;4.60;;;0.90;;
15818;SDS011;8010;53.986;12.106;2024-01-06T14:39:37;3.30;;;1.10;;
15818;SDS011;8010;53.986;12.106;2024-01-06T14:42:02;1.53;;;0.90;;
15818;SDS011;8010;53.986;12.106;2024-01-06T14:44:28;7.03;;;1.00;;
15818;SDS011;8010;53.986;12.106;2024-01-06T14:46:54;2.57;;;1.03;;
15818;SDS011;8010;53.986;12.106;2024-01-06T14:49:20;1.80;;;1.10;;